Time;durP1;ratioP1;P1;durP2;ratioP2;P2;SDS_P1;SDS_P2;PMS_P1;PMS_P2;Temp;Humidity;BMP_temperature;BMP_pressure;BME280_temperature;BME280_humidity;BME280_pressure;Samples;Min_cycle;Max_cycle;Signal;HPM_P1;HPM_P2
2021/07/26 00:00:58;;;;;;;8.55;4.53;;;20.00;97.60;;;;;;4937592;29;20091;-72
2021/07/26 00:03:24;;;;;;;7.22;4.70;;;19.90;97.70;;;;;;4937718;29;20031;-72
2021/07/26 00:05:57;;;;;;;9.55;4.70;;;19.90;97.90;;;;;;4937868;29;20035;-72
2021/07/26 00:08:22;;;;;;;7.32;5.15;;;19.80;98.10;;;;;;4937867;29;20473;-72
2021/07/26 00:10:57;;;;;;;7.03;4.70;;;19.80;98.20;;;;;;4937364;29;20044;-72
2021/07/26 00:13:22;;;;;;;8.15;4.82;;;19.80;98.50;;;;;;4937528;29;20095;-69
2021/07/26 00:15:48;;;;;;;7.03;5.47;;;19.80;98.70;;;;;;4937683;29;20032;-70
2021/07/26 00:18:14;;;;;;;7.88;4.80;;;19.70;98.80;;;;;;4937725;29;20364;-70
2021/07/26 00:20:39;;;;;;;5.90;4.78;;;19.70;99.10;;;;;;4937370;29;20502;-70
2021/07/26 00:23:05;;;;;;;9.52;4.88;;;19.70;99.20;;;;;;4937450;29;20043;-70
2021/07/26 00:25:31;;;;;;;9.38;4.97;;;19.70;99.40;;;;;;4937369;29;20068;-70
2021/07/26 00:27:57;;;;;;;7.45;5.70;;;19.70;99.60;;;;;;4920031;29;20035;-70
2021/07/26 00:30:22;;;;;;;10.50;5.25;;;19.70;99.80;;;;;;4937331;29;20027;-70
2021/07/26 00:32:48;;;;;;;9.13;5.28;;;19.70;99.90;;;;;;4937303;29;20038;-70
2021/07/26 00:35:14;;;;;;;7.80;5.72;;;19.70;99.90;;;;;;4937338;29;20511;-70
2021/07/26 00:37:39;;;;;;;9.60;5.30;;;19.70;99.90;;;;;;4937378;29;20064;-69
2021/07/26 00:40:09;;;;;;;7.30;5.32;;;19.60;99.90;;;;;;4937030;29;20055;-70
2021/07/26 00:42:36;;;;;;;9.38;5.25;;;19.70;99.90;;;;;;4937020;29;20043;-70
2021/07/26 00:45:03;;;;;;;10.20;5.55;;;19.60;99.90;;;;;;4936909;29;20028;-70
2021/07/26 00:47:29;;;;;;;7.50;5.32;;;19.60;99.90;;;;;;4937118;29;20063;-69
2021/07/26 00:49:55;;;;;;;9.77;5.22;;;19.60;99.90;;;;;;4936783;29;20416;-70
2021/07/26 00:52:21;;;;;;;7.60;5.40;;;19.60;99.90;;;;;;4936555;29;20104;-69
2021/07/26 00:54:47;;;;;;;7.47;5.22;;;19.50;99.90;;;;;;4936890;29;20143;-70
2021/07/26 00:57:13;;;;;;;6.85;5.32;;;19.50;99.90;;;;;;4936716;29;20055;-70
2021/07/26 00:59:39;;;;;;;11.27;5.68;;;19.50;99.90;;;;;;4936736;29;20040;-70
2021/07/26 01:02:05;;;;;;;8.00;5.40;;;19.50;99.90;;;;;;4936514;29;20547;-69
2021/07/26 01:04:31;;;;;;;11.07;5.57;;;19.50;99.90;;;;;;4936735;29;20032;-69
2021/07/26 01:06:57;;;;;;;7.70;5.25;;;19.40;99.90;;;;;;4936630;29;20027;-69
2021/07/26 01:09:23;;;;;;;7.75;5.72;;;19.40;99.90;;;;;;4919486;29;20400;-69
2021/07/26 01:11:50;;;;;;;8.43;5.75;;;19.40;99.90;;;;;;4936597;29;20059;-70
2021/07/26 01:14:16;;;;;;;8.75;5.63;;;19.40;99.90;;;;;;4936468;29;20035;-70
2021/07/26 01:16:43;;;;;;;7.28;5.20;;;19.30;99.90;;;;;;4936500;29;20032;-70
2021/07/26 01:52:49;;;;;;;8.35;5.18;;;19.00;99.90;;;;;;5447522;23;20048;-70
2021/07/26 01:55:15;;;;;;;10.95;5.65;;;19.00;99.90;;;;;;4916921;29;20535;-70
2021/07/26 01:57:41;;;;;;;7.18;5.10;;;19.00;99.90;;;;;;4916638;29;20535;-70
2021/07/26 02:00:07;;;;;;;8.40;5.60;;;19.00;99.90;;;;;;4916633;29;20119;-70
2021/07/26 02:02:33;;;;;;;7.47;5.78;;;19.00;99.90;;;;;;4916321;29;20487;-70
2021/07/26 02:04:58;;;;;;;7.05;5.70;;;18.90;99.90;;;;;;4916437;29;20043;-70
2021/07/26 02:07:25;;;;;;;8.35;6.18;;;18.90;99.90;;;;;;4916555;29;20028;-70
2021/07/26 02:09:50;;;;;;;6.80;5.50;;;18.90;99.90;;;;;;4916773;29;20051;-70
2021/07/26 02:12:16;;;;;;;7.18;5.40;;;18.90;99.90;;;;;;4916691;29;20032;-71
2021/07/26 02:14:42;;;;;;;9.43;6.30;;;18.90;99.90;;;;;;4916051;29;20024;-71
2021/07/26 02:17:08;;;;;;;6.57;5.28;;;18.90;99.90;;;;;;4916786;29;20447;-70
2021/07/26 02:19:34;;;;;;;7.88;5.63;;;18.80;99.90;;;;;;4916539;29;20472;-71
2021/07/26 02:22:00;;;;;;;7.90;5.80;;;18.90;99.90;;;;;;4916231;29;20499;-71
2021/07/26 02:24:26;;;;;;;8.85;5.30;;;18.80;99.90;;;;;;4916168;29;20032;-71
2021/07/26 02:26:52;;;;;;;7.28;5.65;;;18.90;99.90;;;;;;4916561;29;20039;-71
2021/07/26 02:29:17;;;;;;;7.75;5.43;;;18.80;99.90;;;;;;4916336;29;20633;-71
2021/07/26 02:31:44;;;;;;;8.27;6.00;;;18.80;99.90;;;;;;4916447;29;20536;-71
2021/07/26 02:34:10;;;;;;;7.93;5.88;;;18.80;99.90;;;;;;4916257;29;20060;-71
2021/07/26 02:36:38;;;;;;;8.52;5.88;;;18.90;99.90;;;;;;4916361;29;20060;-71
2021/07/26 02:39:04;;;;;;;7.22;5.60;;;18.90;99.90;;;;;;4915982;29;20160;-71
2021/07/26 02:41:30;;;;;;;9.80;5.57;;;18.80;99.90;;;;;;4915872;29;20083;-71
2021/07/26 02:43:56;;;;;;;9.35;5.50;;;18.80;99.90;;;;;;4916250;29;20032;-71
2021/07/26 02:46:22;;;;;;;10.07;5.78;;;18.90;99.90;;;;;;4915895;29;20508;-71
2021/07/26 02:48:48;;;;;;;9.70;6.43;;;18.80;99.90;;;;;;4916188;29;20115;-71
2021/07/26 02:51:14;;;;;;;7.90;5.72;;;18.90;99.90;;;;;;4915678;29;20124;-72
2021/07/26 02:53:41;;;;;;;7.65;6.10;;;18.90;99.90;;;;;;4915592;29;20059;-72
2021/07/26 02:56:11;;;;;;;10.50;5.80;;;18.90;99.90;;;;;;4915827;29;20107;-71
2021/07/26 02:58:37;;;;;;;7.00;5.67;;;18.90;99.90;;;;;;4915989;29;20024;-71
2021/07/26 03:01:03;;;;;;;9.02;5.75;;;18.80;99.90;;;;;;4916040;29;20389;-71
2021/07/26 03:03:29;;;;;;;9.75;6.30;;;18.90;99.90;;;;;;4915583;29;20031;-71
2021/07/26 03:05:55;;;;;;;8.07;5.65;;;18.90;99.90;;;;;;4915803;29;20036;-70
2021/07/26 03:08:21;;;;;;;9.32;6.60;;;19.00;99.90;;;;;;4915563;29;20032;-73
2021/07/26 03:10:47;;;;;;;9.90;6.05;;;19.00;99.90;;;;;;4916010;29;20032;-73
2021/07/26 03:13:12;;;;;;;9.10;5.78;;;19.10;99.90;;;;;;4915769;29;20404;-73
2021/07/26 03:15:38;;;;;;;9.70;6.38;;;19.10;99.90;;;;;;4915788;29;20032;-73
2021/07/26 03:18:04;;;;;;;7.47;5.93;;;19.20;99.90;;;;;;4915844;29;20028;-73
2021/07/26 03:20:30;;;;;;;7.65;5.80;;;19.20;99.90;;;;;;4915483;29;20028;-73
2021/07/26 03:22:59;;;;;;;7.45;5.50;;;19.20;99.90;;;;;;4915741;29;20064;-73
2021/07/26 03:25:26;;;;;;;10.60;6.20;;;19.30;99.90;;;;;;4915533;29;20028;-73
2021/07/26 03:27:52;;;;;;;9.07;6.55;;;19.50;99.90;;;;;;4919740;29;20039;-73
2021/07/26 03:30:19;;;;;;;7.57;6.10;;;19.60;99.90;;;;;;4902355;29;20020;-74
2021/07/26 03:32:45;;;;;;;7.80;5.88;;;19.60;99.90;;;;;;4919661;29;20032;-74
2021/07/26 03:35:12;;;;;;;9.40;5.93;;;19.60;99.90;;;;;;4919437;29;20060;-74
2021/07/26 03:37:38;;;;;;;7.60;5.43;;;19.60;99.90;;;;;;4919136;29;20036;-74
2021/07/26 03:40:05;;;;;;;7.00;5.45;;;19.60;99.90;;;;;;4919613;29;20028;-74
2021/07/26 03:42:36;;;;;;;9.13;5.97;;;19.70;99.90;;;;;;4919256;29;20044;-74
2021/07/26 03:45:03;;;;;;;9.23;5.72;;;19.60;99.90;;;;;;4919513;29;20048;-74
2021/07/26 03:47:28;;;;;;;8.80;5.53;;;19.60;99.90;;;;;;4919270;29;20036;-74
2021/07/26 03:49:54;;;;;;;9.45;6.25;;;19.60;99.90;;;;;;4919349;29;20020;-74
2021/07/26 03:52:20;;;;;;;9.77;5.97;;;19.60;99.90;;;;;;4918891;29;20052;-75
2021/07/26 03:54:45;;;;;;;8.15;5.90;;;19.70;99.90;;;;;;4919240;29;20040;-74
2021/07/26 03:57:11;;;;;;;9.77;6.25;;;19.80;99.90;;;;;;4919258;29;20088;-72
2021/07/26 03:59:37;;;;;;;9.77;6.28;;;20.20;99.90;;;;;;4918697;29;20472;-72
2021/07/26 04:02:03;;;;;;;7.43;6.00;;;20.50;99.90;;;;;;4918705;29;20067;-72
2021/07/26 04:04:28;;;;;;;11.57;6.20;;;20.80;99.90;;;;;;4918573;29;20032;-72
2021/07/26 04:06:58;;;;;;;9.88;6.30;;;21.20;99.90;;;;;;4919084;29;20032;-72
2021/07/26 04:09:27;;;;;;;7.95;5.72;;;21.50;99.90;;;;;;4918914;29;20103;-72
2021/07/26 04:12:28;;;;;;;12.23;6.40;;;21.70;99.90;;;;;;4918791;29;20152;-72
2021/07/26 04:14:45;;;;;;;10.18;5.72;;;22.00;99.30;;;;;;4916547;29;20675;-73
2021/07/26 04:17:10;;;;;;;6.95;5.72;;;22.30;98.50;;;;;;4918822;29;20028;-72
2021/07/26 04:19:36;;;;;;;7.78;6.20;;;22.60;97.70;;;;;;4918600;29;20163;-78
2021/07/26 04:22:02;;;;;;;9.13;5.95;;;22.70;97.30;;;;;;4918701;29;20127;-75
2021/07/26 04:24:28;;;;;;;9.45;5.60;;;22.80;97.10;;;;;;4918213;29;20038;-75
2021/07/26 04:26:53;;;;;;;8.70;5.65;;;23.00;96.80;;;;;;4918534;29;20034;-76
2021/07/26 04:29:19;;;;;;;9.38;5.57;;;23.10;96.50;;;;;;4917797;29;20161;-77
2021/07/26 04:31:49;;;;;;;8.98;5.30;;;23.30;96.10;;;;;;4918492;29;20391;-78
2021/07/26 04:34:15;;;;;;;9.32;5.57;;;23.40;95.60;;;;;;4909431;29;20028;-78
2021/07/26 04:36:40;;;;;;;10.38;6.00;;;23.70;95.20;;;;;;4902104;29;20036;-77
2021/07/26 04:39:06;;;;;;;7.85;6.18;;;23.80;94.70;;;;;;4898415;29;20449;-78
2021/07/26 04:41:33;;;;;;;9.45;5.88;;;24.10;94.20;;;;;;4909898;29;20119;-77
2021/07/26 04:43:59;;;;;;;10.13;6.18;;;24.20;93.60;;;;;;4915448;29;20396;-79
2021/07/26 04:46:25;;;;;;;10.90;5.57;;;24.30;93.60;;;;;;4901139;29;20035;-76
2021/07/26 04:48:50;;;;;;;10.60;6.20;;;24.50;92.70;;;;;;4914899;29;20036;-76
2021/07/26 04:51:16;;;;;;;7.32;5.40;;;24.70;92.30;;;;;;4908300;29;20032;-76
2021/07/26 04:53:42;;;;;;;9.52;5.85;;;24.80;91.60;;;;;;4907219;29;20036;-75
2021/07/26 04:56:07;;;;;;;8.98;6.05;;;24.90;91.20;;;;;;4909016;29;20431;-73
2021/07/26 04:58:34;;;;;;;7.75;5.47;;;25.10;90.90;;;;;;4907495;29;20028;-73
2021/07/26 05:01:00;;;;;;;9.20;5.22;;;25.20;90.20;;;;;;4912132;29;20083;-77
2021/07/26 05:03:26;;;;;;;8.00;5.25;;;25.30;89.80;;;;;;4918041;29;20032;-77
2021/07/26 05:05:52;;;;;;;8.20;5.15;;;25.40;88.80;;;;;;4917782;29;20575;-72
2021/07/26 05:08:17;;;;;;;8.43;5.70;;;25.60;88.20;;;;;;4917971;29;20032;-72
2021/07/26 05:10:47;;;;;;;9.65;5.25;;;25.70;87.30;;;;;;4917816;29;20476;-72
2021/07/26 05:13:16;;;;;;;6.38;5.38;;;25.80;86.90;;;;;;4909462;29;20053;-72
2021/07/26 05:15:42;;;;;;;6.47;4.97;;;26.00;86.00;;;;;;4898865;29;20028;-79
2021/07/26 05:18:08;;;;;;;8.55;5.47;;;26.10;85.10;;;;;;4898627;29;20040;-78
2021/07/26 05:20:34;;;;;;;9.55;5.38;;;26.30;84.30;;;;;;4898512;29;20021;-73
2021/07/26 05:23:00;;;;;;;10.57;5.38;;;26.40;83.60;;;;;;4898352;29;20511;-74
2021/07/26 05:25:25;;;;;;;8.45;5.43;;;26.50;82.00;;;;;;4898281;29;20041;-74
2021/07/26 05:27:51;;;;;;;9.32;5.40;;;26.70;81.50;;;;;;4898491;29;20129;-72
2021/07/26 05:30:18;;;;;;;8.00;4.97;;;26.80;81.30;;;;;;4898590;29;20072;-72
2021/07/26 05:32:43;;;;;;;8.55;5.40;;;26.90;79.80;;;;;;4898165;29;20024;-72
2021/07/26 05:35:09;;;;;;;6.25;5.00;;;27.00;79.30;;;;;;4898414;29;20032;-72
2021/07/26 05:37:35;;;;;;;5.95;4.70;;;27.00;78.90;;;;;;4901496;29;20480;-72
2021/07/26 05:40:02;;;;;;;7.53;4.75;;;27.20;78.20;;;;;;4914271;29;20056;-72
2021/07/26 05:42:28;;;;;;;5.78;4.32;;;27.30;76.90;;;;;;4916759;29;20036;-72
2021/07/26 05:44:55;;;;;;;9.45;4.63;;;27.50;75.90;;;;;;4917214;29;20031;-72
2021/07/26 05:47:21;;;;;;;8.82;3.83;;;27.60;73.10;;;;;;4916867;29;20031;-72
2021/07/26 05:49:46;;;;;;;5.22;3.97;;;27.60;71.80;;;;;;4916907;29;20028;-72
2021/07/26 05:52:12;;;;;;;5.82;4.20;;;27.70;70.80;;;;;;4916776;29;20381;-72
2021/07/26 05:54:38;;;;;;;11.48;4.13;;;27.80;69.90;;;;;;4916549;29;20055;-72
2021/07/26 05:57:09;;;;;;;6.57;4.10;;;27.80;70.30;;;;;;4916872;29;20040;-72
2021/07/26 05:59:35;;;;;;;5.97;4.38;;;27.90;69.50;;;;;;4916613;29;20087;-72
2021/07/26 06:02:01;;;;;;;5.82;3.90;;;27.90;68.80;;;;;;4902898;29;20041;-77
2021/07/26 06:04:27;;;;;;;5.65;4.22;;;28.00;69.10;;;;;;4903892;29;20028;-72
2021/07/26 06:06:54;;;;;;;4.85;3.70;;;28.10;69.10;;;;;;4916242;29;20039;-72
2021/07/26 06:09:21;;;;;;;6.50;4.05;;;28.10;68.20;;;;;;4916826;29;20035;-73
2021/07/26 06:11:49;;;;;;;7.18;4.50;;;28.10;68.50;;;;;;4899523;29;20575;-80
2021/07/26 06:14:15;;;;;;;7.43;3.92;;;28.10;68.10;;;;;;4920383;29;20542;-82
2021/07/26 06:16:43;;;;;;;7.93;4.97;;;28.30;68.10;;;;;;4918457;29;20079;-79
2021/07/26 06:19:10;;;;;;;8.10;4.45;;;28.40;67.20;;;;;;4934852;29;20024;-81
2021/07/26 06:21:51;;;;;;;6.45;4.15;;;28.50;66.70;;;;;;4931143;29;20040;-76
2021/07/26 06:24:18;;;;;;;6.18;3.83;;;28.50;65.70;;;;;;4897704;29;20029;-76
2021/07/26 06:26:45;;;;;;;5.13;4.07;;;28.60;65.90;;;;;;4897263;29;20044;-72
2021/07/26 06:29:11;;;;;;;7.78;4.18;;;28.60;65.80;;;;;;4897350;29;20028;-73
2021/07/26 06:31:37;;;;;;;5.30;4.03;;;28.70;65.50;;;;;;4897118;29;20404;-72
2021/07/26 06:34:05;;;;;;;5.18;3.88;;;28.70;64.90;;;;;;4904837;29;20123;-73
2021/07/26 06:36:31;;;;;;;6.22;4.28;;;28.70;64.80;;;;;;4916216;29;20083;-73
2021/07/26 06:38:58;;;;;;;7.15;4.18;;;28.70;65.00;;;;;;4899114;29;20119;-77
2021/07/26 06:41:23;;;;;;;6.20;3.97;;;28.70;64.60;;;;;;4899256;29;20437;-78
2021/07/26 06:43:53;;;;;;;7.70;4.20;;;28.70;64.40;;;;;;4899587;29;20036;-76
2021/07/26 06:46:19;;;;;;;7.47;4.57;;;28.70;64.10;;;;;;4904405;29;20147;-76
2021/07/26 06:48:45;;;;;;;4.72;3.47;;;28.60;64.10;;;;;;4906988;29;20043;-67
2021/07/26 06:51:10;;;;;;;7.97;4.28;;;28.50;64.20;;;;;;4904734;29;20028;-66
2021/07/26 06:53:36;;;;;;;6.20;3.58;;;28.50;64.90;;;;;;4903988;29;20061;-67
2021/07/26 06:56:04;;;;;;;5.15;3.85;;;28.50;65.20;;;;;;4905175;29;20059;-68
2021/07/26 06:58:30;;;;;;;5.88;3.70;;;28.40;64.10;;;;;;4900916;29;20083;-69
2021/07/26 07:01:01;;;;;;;9.38;4.15;;;28.40;64.70;;;;;;4906554;29;20152;-68
2021/07/26 07:03:26;;;;;;;6.13;3.80;;;28.40;65.30;;;;;;4915591;29;20032;-73
2021/07/26 07:05:52;;;;;;;7.93;4.05;;;28.50;65.00;;;;;;4915600;29;20051;-70
2021/07/26 07:08:18;;;;;;;4.18;3.75;;;28.40;65.00;;;;;;4905716;29;20095;-70
2021/07/26 07:10:43;;;;;;;5.85;4.15;;;28.50;66.00;;;;;;4905761;29;20033;-70
2021/07/26 07:13:09;;;;;;;7.95;4.50;;;28.40;66.50;;;;;;4905302;29;20039;-70
2021/07/26 07:15:35;;;;;;;9.57;3.83;;;28.40;66.20;;;;;;4906676;29;20103;-70
2021/07/26 07:18:00;;;;;;;5.63;4.10;;;28.30;65.50;;;;;;4896966;29;20028;-70
2021/07/26 07:20:26;;;;;;;19.73;4.85;;;28.30;65.00;;;;;;4905492;29;20033;-70
2021/07/26 07:22:53;;;;;;;5.93;4.60;;;28.20;65.70;;;;;;4906445;29;20480;-70
2021/07/26 07:25:18;;;;;;;7.35;3.72;;;28.20;65.70;;;;;;4902830;29;20055;-70
2021/07/26 07:27:44;;;;;;;8.77;4.05;;;28.20;67.30;;;;;;4910663;29;20074;-70
2021/07/26 07:30:10;;;;;;;7.57;4.15;;;28.10;65.70;;;;;;4906926;29;20024;-70
2021/07/26 07:32:37;;;;;;;6.63;4.07;;;28.10;65.80;;;;;;4899332;29;20099;-70
2021/07/26 07:35:03;;;;;;;10.07;4.10;;;28.10;65.50;;;;;;4895618;29;20024;-70
2021/07/26 07:37:29;;;;;;;7.70;4.03;;;28.10;66.10;;;;;;4904762;29;20024;-70
2021/07/26 07:39:55;;;;;;;10.68;4.10;;;28.10;65.50;;;;;;4910892;29;20035;-69
2021/07/26 07:42:20;;;;;;;5.30;4.13;;;27.90;65.40;;;;;;4904689;29;20047;-69
2021/07/26 07:44:47;;;;;;;5.88;4.50;;;27.90;67.00;;;;;;4903987;29;20400;-69
2021/07/26 07:47:14;;;;;;;6.13;4.13;;;27.90;67.90;;;;;;4902911;29;20357;-70
2021/07/26 07:49:42;;;;;;;11.10;4.78;;;27.90;67.90;;;;;;4895580;29;20036;-72
2021/07/26 07:52:11;;;;;;;9.35;3.55;;;27.80;67.30;;;;;;4895239;29;20499;-70
2021/07/26 07:54:36;;;;;;;5.13;4.05;;;27.90;68.10;;;;;;4895514;29;20039;-70
2021/07/26 07:57:03;;;;;;;5.97;3.78;;;27.90;67.50;;;;;;4895503;29;20040;-70
2021/07/26 07:59:29;;;;;;;7.72;4.10;;;27.90;68.20;;;;;;4895368;29;20392;-70
2021/07/26 08:01:55;;;;;;;8.50;3.80;;;27.90;66.80;;;;;;4895441;29;20028;-70
2021/07/26 08:04:20;;;;;;;6.22;3.90;;;27.80;67.50;;;;;;4895792;29;20028;-70
2021/07/26 08:06:46;;;;;;;6.95;3.70;;;27.70;67.30;;;;;;4898882;29;20547;-70
2021/07/26 08:09:12;;;;;;;7.65;4.10;;;27.60;67.50;;;;;;4914574;29;20055;-71
2021/07/26 08:11:38;;;;;;;9.25;4.47;;;27.50;68.70;;;;;;4914216;29;20492;-71
2021/07/26 08:14:04;;;;;;;7.22;4.38;;;27.50;68.60;;;;;;4916791;29;20025;-71
2021/07/26 08:16:31;;;;;;;13.63;4.25;;;27.60;70.00;;;;;;4917603;29;20063;-70
2021/07/26 08:18:57;;;;;;;6.20;4.35;;;27.60;69.30;;;;;;4917735;29;20055;-70
2021/07/26 08:21:23;;;;;;;14.80;4.00;;;27.50;68.60;;;;;;4917671;29;20075;-71
2021/07/26 08:23:49;;;;;;;5.70;4.13;;;27.50;68.80;;;;;;4917908;29;20056;-71
2021/07/26 08:26:14;;;;;;;10.57;4.28;;;27.50;69.00;;;;;;4917570;29;20574;-79
2021/07/26 08:28:40;;;;;;;6.97;3.85;;;27.40;69.20;;;;;;4917497;29;20021;-72
2021/07/26 08:31:06;;;;;;;11.05;4.50;;;27.20;69.60;;;;;;4917794;29;20392;-71
2021/07/26 08:33:32;;;;;;;7.97;4.30;;;27.10;71.30;;;;;;4914756;29;20384;-71
2021/07/26 08:35:57;;;;;;;10.18;4.75;;;27.10;70.20;;;;;;4917279;29;20490;-71
2021/07/26 08:38:23;;;;;;;6.85;4.07;;;27.20;70.40;;;;;;4900789;29;20036;-71
2021/07/26 08:40:49;;;;;;;7.68;4.18;;;27.20;70.30;;;;;;4917687;29;20024;-71
2021/07/26 08:43:15;;;;;;;6.82;4.05;;;27.10;70.70;;;;;;4917307;29;20044;-71
2021/07/26 08:45:41;;;;;;;15.15;4.45;;;27.20;70.60;;;;;;4917126;29;20024;-71
2021/07/26 08:48:09;;;;;;;18.42;4.68;;;27.10;70.90;;;;;;4917101;29;20039;-71
2021/07/26 08:50:37;;;;;;;8.02;3.90;;;27.00;71.00;;;;;;4916956;29;20496;-71
2021/07/26 08:53:08;;;;;;;7.75;4.07;;;26.90;71.10;;;;;;4917041;29;20048;-71
2021/07/26 08:55:34;;;;;;;10.88;4.00;;;26.70;71.20;;;;;;4916955;29;20503;-71
2021/07/26 08:58:01;;;;;;;5.65;3.47;;;26.60;71.60;;;;;;4917439;29;20060;-71
2021/07/26 09:00:27;;;;;;;6.53;3.58;;;26.40;72.30;;;;;;4916999;29;20039;-71
2021/07/26 09:02:53;;;;;;;4.43;3.15;;;26.30;72.50;;;;;;4907215;29;20496;-71
2021/07/26 09:05:20;;;;;;;7.72;3.75;;;26.10;72.20;;;;;;4902626;29;20111;-75
2021/07/26 09:07:48;;;;;;;10.50;3.22;;;26.00;72.90;;;;;;4916934;29;20506;-71
2021/07/26 09:10:24;;;;;;;8.93;3.38;;;26.00;72.90;;;;;;4917008;29;20040;-71
2021/07/26 09:12:55;;;;;;;9.85;3.53;;;26.00;72.20;;;;;;4917094;29;20044;-71
2021/07/26 09:15:32;;;;;;;8.00;3.42;;;25.80;72.60;;;;;;4916736;29;20028;-71
2021/07/26 09:17:59;;;;;;;8.57;3.28;;;25.80;73.20;;;;;;4906144;29;20087;-71
2021/07/26 09:20:28;;;;;;;5.18;3.25;;;25.70;73.50;;;;;;4900984;29;20025;-73
2021/07/26 09:22:56;;;;;;;7.38;3.33;;;25.70;74.10;;;;;;4897631;29;20044;-71
2021/07/26 09:25:29;;;;;;;5.75;3.85;;;25.60;74.40;;;;;;4897400;29;20683;-71
2021/07/26 09:28:09;;;;;;;10.75;3.60;;;25.70;74.70;;;;;;4897850;29;20506;-72
2021/07/26 09:30:39;;;;;;;7.40;3.55;;;25.70;74.30;;;;;;4897768;29;20368;-71
2021/07/26 09:33:17;;;;;;;8.15;3.70;;;25.60;74.20;;;;;;4908824;29;20138;-71
